createdAt,value
2022-12-08T00:01:22.691Z,73.24
2022-12-08T00:03:51.110Z,73.30
2022-12-08T00:06:42.885Z,73.32
2022-12-08T00:09:23.524Z,73.31
2022-12-08T00:12:20.220Z,73.31
2022-12-08T00:14:47.791Z,73.22
2022-12-08T00:17:17.186Z,73.23
2022-12-08T00:19:45.181Z,73.20
2022-12-08T00:22:13.558Z,73.21
2022-12-08T00:24:44.450Z,73.10
2022-12-08T00:27:13.903Z,73.13
2022-12-08T00:29:43.612Z,73.16
2022-12-08T00:32:10.823Z,73.18
2022-12-08T00:34:37.990Z,73.29
2022-12-08T00:37:05.117Z,73.18
2022-12-08T00:39:32.341Z,73.10
2022-12-08T00:42:14.779Z,73.12
2022-12-08T00:44:44.467Z,73.13
2022-12-08T00:47:12.904Z,73.18
2022-12-08T00:49:40.532Z,73.01
2022-12-08T00:52:07.582Z,73.09
2022-12-08T00:54:34.639Z,73.07
2022-12-08T00:57:01.785Z,72.98
2022-12-08T00:59:28.877Z,72.95
2022-12-08T01:01:55.975Z,73.06
2022-12-08T01:04:24.459Z,73.09
2022-12-08T01:06:51.963Z,73.14
2022-12-08T01:09:19.456Z,72.99
2022-12-08T01:11:47.136Z,73.07
2022-12-08T01:14:14.731Z,73.07
2022-12-08T01:16:42.303Z,73.03
2022-12-08T01:19:12.292Z,73.09
2022-12-08T01:21:40.704Z,73.10
2022-12-08T01:24:11.155Z,73.09
2022-12-08T01:26:38.232Z,73.06
2022-12-08T01:29:05.428Z,73.09
2022-12-08T01:31:32.459Z,73.18
2022-12-08T01:33:59.531Z,73.14
2022-12-08T01:36:32.364Z,73.24
2022-12-08T01:39:03.482Z,73.20
2022-12-08T01:41:33.326Z,73.11
2022-12-08T01:44:10.714Z,73.19
2022-12-08T01:46:40.720Z,73.21
2022-12-08T01:49:22.959Z,73.17
2022-12-08T01:51:59.222Z,73.19
2022-12-08T01:54:29.623Z,73.11
2022-12-08T01:57:05.866Z,73.15
2022-12-08T01:59:38.210Z,73.21
2022-12-08T02:02:05.509Z,73.24
2022-12-08T02:04:32.690Z,73.07
2022-12-08T02:07:03.695Z,73.12
2022-12-08T02:09:35.986Z,73.22
2022-12-08T02:12:03.129Z,73.14
2022-12-08T02:14:30.257Z,73.09
2022-12-08T02:17:20.855Z,73.18
2022-12-08T02:20:22.334Z,73.14
2022-12-08T02:23:06.229Z,73.10
2022-12-08T02:25:43.233Z,73.18
2022-12-08T02:28:41.156Z,73.09
2022-12-08T02:31:26.949Z,73.16
2022-12-08T02:33:54.120Z,73.19
2022-12-08T02:36:32.433Z,73.10
2022-12-08T02:38:59.552Z,73.13
2022-12-08T02:41:45.702Z,73.08
2022-12-08T02:44:23.371Z,73.00
2022-12-08T02:47:05.373Z,73.12
2022-12-08T02:49:33.934Z,73.11
2022-12-08T02:52:27.125Z,73.13
2022-12-08T02:54:59.539Z,73.06
2022-12-08T02:57:57.801Z,73.00
2022-12-08T03:00:29.644Z,73.08
2022-12-08T03:03:07.382Z,73.06
2022-12-08T03:06:02.334Z,73.16
2022-12-08T03:08:51.731Z,73.07
2022-12-08T03:11:33.244Z,73.11
2022-12-08T03:14:03.825Z,73.04
2022-12-08T03:16:35.379Z,73.06
2022-12-08T03:19:05.345Z,73.15
2022-12-08T03:21:35.364Z,73.08
2022-12-08T03:24:07.479Z,73.17
2022-12-08T03:26:52.022Z,73.08
2022-12-08T03:29:19.395Z,72.98
2022-12-08T03:31:54.302Z,73.13
2022-12-08T03:34:24.502Z,73.12
2022-12-08T03:36:51.649Z,73.20
2022-12-08T03:39:18.748Z,73.15
2022-12-08T03:41:47.230Z,73.03
2022-12-08T03:44:14.329Z,73.08
2022-12-08T03:46:41.507Z,73.03
2022-12-08T03:49:08.538Z,73.01
2022-12-08T03:51:35.552Z,73.12
2022-12-08T03:54:02.652Z,73.10
2022-12-08T03:56:35.309Z,73.05
2022-12-08T03:59:02.974Z,72.99
2022-12-08T04:01:30.140Z,72.96
2022-12-08T04:03:57.779Z,73.01
2022-12-08T04:06:25.726Z,73.16
2022-12-08T04:08:53.832Z,73.19
2022-12-08T04:11:21.283Z,73.12
2022-12-08T04:13:48.919Z,73.07
2022-12-08T04:16:22.509Z,73.04
2022-12-08T04:18:49.700Z,72.93
2022-12-08T04:21:17.437Z,73.09
2022-12-08T04:23:45.196Z,73.08
2022-12-08T04:26:13.425Z,73.13
2022-12-08T04:28:40.602Z,73.07
2022-12-08T04:31:08.205Z,73.00
2022-12-08T04:33:35.517Z,73.06
2022-12-08T04:36:05.074Z,73.09
2022-12-08T04:38:32.812Z,73.14
2022-12-08T04:41:00.097Z,73.07
2022-12-08T04:43:27.166Z,73.03
2022-12-08T04:45:54.319Z,72.96
2022-12-08T04:48:21.424Z,72.94
2022-12-08T04:50:48.565Z,72.99
2022-12-08T04:53:15.564Z,73.01
2022-12-08T04:55:44.944Z,73.11
2022-12-08T04:58:14.241Z,73.14
2022-12-08T05:00:41.907Z,73.06
2022-12-08T05:03:09.668Z,72.86
2022-12-08T05:05:36.974Z,72.99
2022-12-08T05:08:04.340Z,73.01
2022-12-08T05:10:31.913Z,72.94
2022-12-08T05:12:59.784Z,72.98
2022-12-08T05:15:27.188Z,73.03
2022-12-08T05:17:54.550Z,72.93
2022-12-08T05:20:21.718Z,72.96
2022-12-08T05:22:48.896Z,72.96
2022-12-08T05:25:16.199Z,72.90
2022-12-08T05:27:43.586Z,72.83
2022-12-08T05:30:11.423Z,72.90
2022-12-08T05:32:38.553Z,72.99
2022-12-08T05:35:06.246Z,72.76
2022-12-08T05:37:33.487Z,72.91
2022-12-08T05:40:00.920Z,72.93
2022-12-08T05:42:28.097Z,72.95
2022-12-08T05:44:55.145Z,72.85
2022-12-08T05:47:22.276Z,72.95
2022-12-08T05:49:49.372Z,72.92
2022-12-08T05:52:17.159Z,72.70
2022-12-08T05:54:44.543Z,72.78
2022-12-08T05:57:11.634Z,72.78
2022-12-08T05:59:39.789Z,72.86
2022-12-08T06:02:08.949Z,72.80
2022-12-08T06:04:36.387Z,72.84
2022-12-08T06:07:03.494Z,72.72
2022-12-08T06:09:30.594Z,72.55
2022-12-08T06:11:57.716Z,72.50
2022-12-08T06:14:24.766Z,72.55
2022-12-08T06:16:51.892Z,72.60
2022-12-08T06:19:19.477Z,72.66
2022-12-08T06:21:46.575Z,72.70
2022-12-08T06:24:13.625Z,72.61
2022-12-08T06:26:41.573Z,72.54
2022-12-08T06:29:09.307Z,72.48
2022-12-08T06:31:36.516Z,72.50
2022-12-08T06:34:04.019Z,72.54
2022-12-08T06:36:31.123Z,72.55
2022-12-08T06:38:58.603Z,72.53
2022-12-08T06:41:25.761Z,72.34
2022-12-08T06:43:57.076Z,72.31
2022-12-08T06:46:24.517Z,72.14
2022-12-08T06:48:51.759Z,72.17
2022-12-08T06:51:21.036Z,72.22
2022-12-08T06:53:48.137Z,72.27
2022-12-08T06:56:16.237Z,72.27
2022-12-08T06:58:46.169Z,72.21
2022-12-08T07:01:17.778Z,72.25
2022-12-08T07:03:44.975Z,72.16
2022-12-08T07:06:18.457Z,72.18
2022-12-08T07:08:45.605Z,72.13
2022-12-08T07:11:18.093Z,72.18
2022-12-08T07:13:48.559Z,72.17
2022-12-08T07:16:15.641Z,72.33
2022-12-08T07:18:44.162Z,72.14
2022-12-08T07:21:13.519Z,72.19
2022-12-08T07:23:40.975Z,72.09
2022-12-08T07:26:10.967Z,72.21
2022-12-08T07:28:39.550Z,72.11
2022-12-08T07:31:07.794Z,72.03
2022-12-08T07:33:36.276Z,72.03
2022-12-08T07:36:06.613Z,72.05
2022-12-08T07:38:34.554Z,72.03
2022-12-08T07:41:02.241Z,72.02
2022-12-08T07:43:29.445Z,71.99
2022-12-08T07:45:56.656Z,71.96
2022-12-08T07:48:23.847Z,72.00
2022-12-08T07:50:50.878Z,72.00
2022-12-08T07:53:18.058Z,71.94
2022-12-08T07:55:45.119Z,71.90
2022-12-08T07:58:12.179Z,71.89
2022-12-08T08:00:39.247Z,71.88
2022-12-08T08:03:06.452Z,71.89
2022-12-08T08:05:33.621Z,71.92
2022-12-08T08:08:00.868Z,71.96
2022-12-08T08:10:28.209Z,71.93
2022-12-08T08:12:55.175Z,71.96
2022-12-08T08:15:22.354Z,71.92
2022-12-08T08:17:52.699Z,72.03
2022-12-08T08:20:21.090Z,72.00
2022-12-08T08:22:49.705Z,72.02
2022-12-08T08:25:17.582Z,71.94
2022-12-08T08:27:44.786Z,71.97
2022-12-08T08:30:18.343Z,72.04
2022-12-08T08:32:48.430Z,72.02
2022-12-08T08:35:15.918Z,72.05
2022-12-08T08:37:47.205Z,72.11
2022-12-08T08:40:16.742Z,71.99
2022-12-08T08:42:43.877Z,71.90
2022-12-08T08:45:11.499Z,71.84
2022-12-08T08:47:38.629Z,71.83
2022-12-08T08:50:06.964Z,71.95
2022-12-08T08:52:34.340Z,71.99
2022-12-08T08:55:01.334Z,71.91
2022-12-08T08:57:28.414Z,71.90
2022-12-08T08:59:55.534Z,71.97
2022-12-08T09:02:22.991Z,71.95
2022-12-08T09:04:50.157Z,72.00
2022-12-08T09:07:17.470Z,71.93
2022-12-08T09:09:44.548Z,71.92
2022-12-08T09:12:13.055Z,71.92
2022-12-08T09:14:40.254Z,71.92
2022-12-08T09:17:08.663Z,71.94
2022-12-08T09:19:35.835Z,71.90
2022-12-08T09:22:03.116Z,71.88
2022-12-08T09:24:30.266Z,72.04
2022-12-08T09:26:57.609Z,72.00
2022-12-08T09:29:26.220Z,71.98
2022-12-08T09:31:56.565Z,71.96
2022-12-08T09:34:23.711Z,71.99
2022-12-08T09:36:50.780Z,71.97
2022-12-08T09:39:17.879Z,71.97
2022-12-08T09:41:50.763Z,72.05
2022-12-08T09:44:27.107Z,72.12
2022-12-08T09:46:56.908Z,72.12
2022-12-08T09:49:39.583Z,72.03
2022-12-08T09:52:18.202Z,72.03
2022-12-08T09:54:45.530Z,72.16
2022-12-08T09:57:17.672Z,72.03
2022-12-08T09:59:51.505Z,72.03
2022-12-08T10:02:24.878Z,71.92
2022-12-08T10:04:56.231Z,72.01
2022-12-08T10:07:52.986Z,72.14
2022-12-08T10:10:42.016Z,72.07
2022-12-08T10:13:23.470Z,72.00
2022-12-08T10:16:26.725Z,72.02
2022-12-08T10:19:08.639Z,72.13
2022-12-08T10:21:35.918Z,72.06
2022-12-08T10:24:11.955Z,71.91
2022-12-08T10:26:39.921Z,71.96
2022-12-08T10:29:12.551Z,72.09
2022-12-08T10:31:39.768Z,72.22
2022-12-08T10:34:33.042Z,72.15
2022-12-08T10:37:00.980Z,72.13
2022-12-08T10:39:32.646Z,72.23
2022-12-08T10:42:15.663Z,72.26
2022-12-08T10:45:00.915Z,72.17
2022-12-08T10:47:29.809Z,72.05
2022-12-08T10:50:24.021Z,72.06
2022-12-08T10:53:16.509Z,71.91
2022-12-08T10:55:46.453Z,72.00
2022-12-08T10:58:40.982Z,71.98
2022-12-08T11:01:14.095Z,71.91
2022-12-08T11:04:01.056Z,71.94
2022-12-08T11:06:31.987Z,72.04
2022-12-08T11:09:02.385Z,71.97
2022-12-08T11:11:44.363Z,71.96
2022-12-08T11:14:33.069Z,71.94
2022-12-08T11:17:10.721Z,71.79
2022-12-08T11:19:39.455Z,71.92
2022-12-08T11:22:29.824Z,71.96
2022-12-08T11:25:03.272Z,71.82
2022-12-08T11:27:32.894Z,71.79
2022-12-08T11:30:02.153Z,71.98
2022-12-08T11:32:29.613Z,71.87
2022-12-08T11:35:03.031Z,71.80
2022-12-08T11:37:43.782Z,71.92
2022-12-08T11:40:26.239Z,71.90
2022-12-08T11:43:08.596Z,71.99
2022-12-08T11:45:36.986Z,71.99
2022-12-08T11:48:19.256Z,72.00
2022-12-08T11:50:57.823Z,72.18
2022-12-08T11:53:55.925Z,72.21
2022-12-08T11:56:44.580Z,72.23
2022-12-08T11:59:26.552Z,72.18
2022-12-08T12:01:54.088Z,72.00
2022-12-08T12:04:45.981Z,72.18
2022-12-08T12:07:26.543Z,72.02
2022-12-08T12:10:25.701Z,72.06
2022-12-08T12:13:14.316Z,72.23
2022-12-08T12:16:17.810Z,72.23
2022-12-08T12:18:50.600Z,72.20
2022-12-08T12:21:24.996Z,72.03
2022-12-08T12:23:52.092Z,72.08
2022-12-08T12:26:28.538Z,72.11
2022-12-08T12:29:13.017Z,72.18
2022-12-08T12:31:46.980Z,72.17
2022-12-08T12:34:22.653Z,72.27
2022-12-08T12:36:54.593Z,72.17
2022-12-08T12:39:26.309Z,72.27
2022-12-08T12:41:57.007Z,72.19
2022-12-08T12:44:37.449Z,72.32
2022-12-08T12:47:10.485Z,72.35
2022-12-08T12:49:40.581Z,72.37
2022-12-08T12:52:10.577Z,72.45
2022-12-08T12:54:43.226Z,72.38
2022-12-08T12:57:13.293Z,72.24
2022-12-08T12:59:55.580Z,72.26
2022-12-08T13:02:54.182Z,72.34
2022-12-08T13:05:35.517Z,72.44
2022-12-08T13:08:08.023Z,72.45
2022-12-08T13:10:38.678Z,72.45
2022-12-08T13:13:17.886Z,72.45
2022-12-08T13:15:55.893Z,72.42
2022-12-08T13:18:41.269Z,72.41
2022-12-08T13:21:15.154Z,72.45
2022-12-08T13:23:47.040Z,72.53
2022-12-08T13:26:15.830Z,72.61
2022-12-08T13:29:01.518Z,72.48
2022-12-08T13:31:50.663Z,72.34
2022-12-08T13:34:41.820Z,72.46
2022-12-08T13:37:12.017Z,72.35
2022-12-08T13:39:39.118Z,72.48
2022-12-08T13:42:12.337Z,72.57
2022-12-08T13:45:19.727Z,72.56
2022-12-08T13:48:13.770Z,72.46
2022-12-08T13:52:37.000Z,72.41
2022-12-08T13:54:35.455Z,72.59
2022-12-08T13:57:00.780Z,72.67
2022-12-08T13:59:34.192Z,72.57
2022-12-08T14:02:32.016Z,72.68
2022-12-08T14:07:47.945Z,72.70
2022-12-08T14:10:27.753Z,72.63
2022-12-08T14:13:04.080Z,72.69
2022-12-08T14:15:38.448Z,72.69
2022-12-08T14:18:07.116Z,72.63
2022-12-08T14:20:57.764Z,72.68
2022-12-08T14:23:22.640Z,72.78
2022-12-08T14:25:49.789Z,72.76
2022-12-08T14:28:17.241Z,72.61
2022-12-08T14:30:44.589Z,72.75
2022-12-08T14:33:19.101Z,72.68
2022-12-08T14:35:52.213Z,72.83
2022-12-08T14:38:21.054Z,72.78
2022-12-08T14:41:09.377Z,72.76
2022-12-08T14:43:36.632Z,72.73
2022-12-08T14:46:18.838Z,72.72
2022-12-08T14:48:46.093Z,72.75
2022-12-08T14:51:28.885Z,72.90
2022-12-08T14:53:59.002Z,72.76
2022-12-08T14:56:33.825Z,72.78
2022-12-08T14:59:28.005Z,72.82
2022-12-08T15:02:14.207Z,72.63
2022-12-08T15:04:44.288Z,72.82
2022-12-08T15:07:14.373Z,72.82
2022-12-08T15:09:48.722Z,72.85
2022-12-08T15:12:15.866Z,72.79
2022-12-08T15:14:59.710Z,72.75
2022-12-08T15:17:42.861Z,72.80
2022-12-08T15:20:28.700Z,72.82
2022-12-08T15:22:58.691Z,72.91
2022-12-08T15:25:25.814Z,72.82
2022-12-08T15:27:58.971Z,72.88
2022-12-08T15:30:29.946Z,72.96
2022-12-08T15:32:57.000Z,72.83
2022-12-08T15:35:24.148Z,72.89
2022-12-08T15:37:51.268Z,72.95
2022-12-08T15:40:23.021Z,73.00
2022-12-08T15:42:50.050Z,73.04
2022-12-08T15:45:17.661Z,72.97
2022-12-08T15:47:45.910Z,72.98
2022-12-08T15:50:18.108Z,72.84
2022-12-08T15:52:45.387Z,72.86
2022-12-08T15:55:14.994Z,72.92
2022-12-08T16:00:53.738Z,72.96
2022-12-08T16:09:15.930Z,73.06
2022-12-08T16:12:07.308Z,72.99
2022-12-08T16:17:23.561Z,73.01
2022-12-08T16:19:50.754Z,73.00
2022-12-08T16:25:18.921Z,72.97
2022-12-08T16:28:01.483Z,73.02
2022-12-08T16:30:33.571Z,73.10
2022-12-08T16:33:00.804Z,73.22
2022-12-08T16:35:27.979Z,73.06
2022-12-08T16:37:55.358Z,73.08
2022-12-08T16:40:22.484Z,72.97
2022-12-08T16:42:50.390Z,73.08
2022-12-08T16:45:23.762Z,73.11
2022-12-08T16:47:53.840Z,73.10
2022-12-08T16:50:22.886Z,73.11
2022-12-08T16:52:50.983Z,73.13
2022-12-08T16:55:19.388Z,73.11
2022-12-08T16:57:47.588Z,73.03
2022-12-08T17:00:18.351Z,73.04
2022-12-08T17:02:45.427Z,73.18
2022-12-08T17:05:15.209Z,73.21
2022-12-08T17:07:44.545Z,73.21
2022-12-08T17:10:14.714Z,73.18
2022-12-08T17:12:42.524Z,73.04
2022-12-08T17:15:13.286Z,73.04
2022-12-08T17:17:40.538Z,73.07
2022-12-08T17:20:13.321Z,73.14
2022-12-08T17:22:40.822Z,73.16
2022-12-08T17:25:08.951Z,73.31
2022-12-08T17:27:36.794Z,73.27
2022-12-08T17:30:05.833Z,73.28
2022-12-08T17:32:33.255Z,73.17
2022-12-08T17:35:00.603Z,73.17
2022-12-08T17:37:27.826Z,73.21
2022-12-08T17:39:55.081Z,73.31
2022-12-08T17:42:26.066Z,73.33
2022-12-08T17:44:53.813Z,73.19
2022-12-08T17:47:21.450Z,73.18
2022-12-08T17:49:48.777Z,73.15
2022-12-08T17:52:15.807Z,73.20
2022-12-08T17:54:42.923Z,73.15
2022-12-08T17:57:10.177Z,73.29
2022-12-08T17:59:37.251Z,73.33
2022-12-08T18:02:04.609Z,73.38
2022-12-08T18:04:32.141Z,73.37
2022-12-08T18:07:01.538Z,73.24
2022-12-08T18:09:31.164Z,73.23
2022-12-08T18:11:58.535Z,73.22
2022-12-08T18:14:25.915Z,73.16
2022-12-08T18:16:53.106Z,73.28
2022-12-08T18:19:20.349Z,73.31
2022-12-08T18:21:47.391Z,73.28
2022-12-08T18:24:22.250Z,73.45
2022-12-08T18:26:52.414Z,73.37
2022-12-08T18:29:21.208Z,73.35
2022-12-08T18:31:48.996Z,73.35
2022-12-08T18:34:16.100Z,73.27
2022-12-08T18:36:43.172Z,73.39
2022-12-08T18:39:27.657Z,73.32
2022-12-08T18:41:55.190Z,73.37
2022-12-08T18:44:22.277Z,73.47
2022-12-08T18:46:49.388Z,73.39
2022-12-08T18:49:19.100Z,73.38
2022-12-08T18:51:46.416Z,73.36
2022-12-08T18:54:13.786Z,73.32
2022-12-08T18:56:40.907Z,73.32
2022-12-08T18:59:11.311Z,73.28
2022-12-08T19:01:40.182Z,73.45
2022-12-08T19:06:56.544Z,73.49
2022-12-08T19:09:26.204Z,73.46
2022-12-08T19:11:53.355Z,73.43
2022-12-08T19:14:27.241Z,73.32
2022-12-08T19:16:55.211Z,73.50
2022-12-08T19:19:22.363Z,73.49
2022-12-08T19:21:49.536Z,73.42
2022-12-08T19:24:16.761Z,73.46
2022-12-08T19:26:44.130Z,73.43
2022-12-08T19:29:12.192Z,73.44
2022-12-08T19:31:40.333Z,73.35
2022-12-08T19:34:09.281Z,73.36
2022-12-08T19:37:37.905Z,73.46
2022-12-08T19:40:24.481Z,73.44
2022-12-08T19:43:10.342Z,73.44
2022-12-08T19:45:38.175Z,73.35
2022-12-08T19:48:05.649Z,73.35
2022-12-08T19:50:39.116Z,73.30
2022-12-08T19:53:07.425Z,73.30
2022-12-08T19:55:34.476Z,73.33
2022-12-08T19:58:02.182Z,73.44
2022-12-08T20:00:31.176Z,73.33
2022-12-08T20:02:59.777Z,73.35
2022-12-08T20:05:26.937Z,73.24
2022-12-08T20:07:55.908Z,73.29
2022-12-08T20:10:29.507Z,73.31
2022-12-08T20:13:17.071Z,73.31
2022-12-08T20:15:45.057Z,73.39
2022-12-08T20:18:14.668Z,73.29
2022-12-08T20:20:43.105Z,73.27
2022-12-08T20:23:10.860Z,73.26
2022-12-08T20:25:39.883Z,73.30
2022-12-08T20:28:07.626Z,73.38
2022-12-08T20:30:37.804Z,73.36
2022-12-08T20:33:04.914Z,73.32
2022-12-08T20:35:32.012Z,73.40
2022-12-08T20:37:59.145Z,73.33
2022-12-08T20:40:26.342Z,73.33
2022-12-08T20:42:53.439Z,73.40
2022-12-08T20:45:20.594Z,73.36
2022-12-08T20:47:47.795Z,73.40
2022-12-08T20:50:15.206Z,73.37
2022-12-08T20:52:42.447Z,73.33
2022-12-08T20:55:10.009Z,73.37
2022-12-08T20:57:37.374Z,73.36
2022-12-08T21:00:06.807Z,73.38
2022-12-08T21:02:34.459Z,73.40
2022-12-08T21:05:01.886Z,73.36
2022-12-08T21:07:29.548Z,73.46
2022-12-08T21:09:56.944Z,73.49
2022-12-08T21:12:24.255Z,73.42
2022-12-08T21:14:51.499Z,73.45
2022-12-08T21:17:18.725Z,73.45
2022-12-08T21:19:45.917Z,73.47
2022-12-08T21:22:14.024Z,73.43
2022-12-08T21:24:41.281Z,73.49
2022-12-08T21:27:08.450Z,73.55
2022-12-08T21:29:35.915Z,73.54
2022-12-08T21:32:03.253Z,73.53
2022-12-08T21:34:31.924Z,73.57
2022-12-08T21:36:59.419Z,73.53
2022-12-08T21:39:26.809Z,73.47
2022-12-08T21:42:12.762Z,73.55
2022-12-08T21:44:40.487Z,73.51
2022-12-08T21:47:08.355Z,73.55
2022-12-08T21:49:35.633Z,73.47
2022-12-08T21:52:02.967Z,73.53
2022-12-08T21:54:30.208Z,73.51
2022-12-08T21:56:57.493Z,73.59
2022-12-08T21:59:24.570Z,73.61
2022-12-08T22:01:52.066Z,73.62
2022-12-08T22:04:21.519Z,73.58
2022-12-08T22:06:49.144Z,73.67
2022-12-08T22:09:16.426Z,73.64
2022-12-08T22:11:44.105Z,73.57
2022-12-08T22:14:14.838Z,73.57
2022-12-08T22:16:42.885Z,73.59
2022-12-08T22:19:10.386Z,73.59
2022-12-08T22:21:38.445Z,73.65
2022-12-08T22:24:06.339Z,73.65
2022-12-08T22:26:33.994Z,73.68
2022-12-08T22:29:02.070Z,73.50
2022-12-08T22:31:29.466Z,73.57
2022-12-08T22:33:59.381Z,73.60
2022-12-08T22:36:28.309Z,73.63
2022-12-08T22:38:55.894Z,73.68
2022-12-08T22:41:23.469Z,73.70
2022-12-08T22:43:51.433Z,73.60
2022-12-08T22:46:23.358Z,73.58
2022-12-08T22:48:51.858Z,73.68
2022-12-08T22:51:19.477Z,73.63
2022-12-08T22:53:47.240Z,73.54
2022-12-08T22:56:16.226Z,73.60
2022-12-08T22:58:44.517Z,73.60
2022-12-08T23:01:30.136Z,73.68
2022-12-08T23:03:59.358Z,73.69
2022-12-08T23:06:28.001Z,73.64
2022-12-08T23:08:56.038Z,73.71
2022-12-08T23:11:26.310Z,73.63
2022-12-08T23:13:53.659Z,73.68
2022-12-08T23:16:21.068Z,73.65
2022-12-08T23:18:48.380Z,73.69
2022-12-08T23:21:18.133Z,73.64
2022-12-08T23:23:45.669Z,73.64
2022-12-08T23:26:26.917Z,73.59
2022-12-08T23:28:54.495Z,73.51
2022-12-08T23:31:22.269Z,73.55
2022-12-08T23:33:49.906Z,73.57
2022-12-08T23:36:18.870Z,73.56
2022-12-08T23:38:46.462Z,73.72
2022-12-08T23:41:15.703Z,73.72
2022-12-08T23:43:50.302Z,73.71
2022-12-08T23:46:20.304Z,73.69
2022-12-08T23:48:48.116Z,73.63
2022-12-08T23:51:16.324Z,73.60
2022-12-08T23:53:44.971Z,73.62
2022-12-08T23:56:15.564Z,73.67
2022-12-08T23:58:43.640Z,73.67
